Time;durP1;ratioP1;P1;durP2;ratioP2;P2;SDS_P1;SDS_P2;PMS_P1;PMS_P2;Temp;Humidity;BMP_temperature;BMP_pressure;BME280_temperature;BME280_humidity;BME280_pressure;Samples;Min_cycle;Max_cycle;Signal;HPM_P1;HPM_P2
2021/04/30 00:01:03;;;;;;;2.35;1.60;;;;;;;7.15;38.03;100726.09;7898120;28;20041;-66
2021/04/30 00:04:54;;;;;;;4.68;1.88;;;;;;;7.17;38.92;100731.25;7895264;28;20071;-66
2021/04/30 00:08:45;;;;;;;3.58;1.85;;;;;;;7.22;38.54;100729.22;7891711;28;20025;-66
2021/04/30 00:12:35;;;;;;;3.78;1.92;;;;;;;7.23;38.59;100729.16;7891728;28;20179;-66
2021/04/30 00:16:26;;;;;;;4.88;1.92;;;;;;;7.22;38.36;100727.44;7891143;28;20529;-66
2021/04/30 00:20:17;;;;;;;4.47;1.70;;;;;;;7.22;38.28;100730.06;7891965;28;20073;-66
2021/04/30 00:24:09;;;;;;;5.35;1.98;;;;;;;7.22;38.50;100724.84;7886581;28;20134;-66
2021/04/30 00:27:59;;;;;;;5.75;2.78;;;;;;;7.16;38.60;100725.19;7904844;28;20028;-66
2021/04/30 00:31:51;;;;;;;4.55;1.90;;;;;;;7.20;38.54;100731.94;7892239;28;20065;-66
2021/04/30 00:35:42;;;;;;;4.25;2.15;;;;;;;7.16;38.55;100729.56;7891576;28;20028;-66
2021/04/30 00:39:33;;;;;;;3.75;1.90;;;;;;;7.15;38.60;100727.88;7895095;28;20094;-66
2021/04/30 00:43:23;;;;;;;7.25;1.95;;;;;;;7.13;38.50;100729.75;7893657;28;20124;-65
2021/04/30 00:47:26;;;;;;;2.58;1.90;;;;;;;7.08;38.84;100723.91;7894814;28;20122;-66
2021/04/30 00:51:16;;;;;;;8.65;2.15;;;;;;;7.09;39.07;100728.22;7896867;28;20032;-66
2021/04/30 00:55:10;;;;;;;5.15;2.03;;;;;;;7.08;38.71;100729.13;7896698;28;20056;-66
2021/04/30 00:59:02;;;;;;;5.95;1.98;;;;;;;7.07;38.81;100733.53;7895612;28;20066;-66
2021/04/30 01:02:54;;;;;;;4.40;1.70;;;;;;;7.05;38.79;100732.75;7900539;28;20093;-66
2021/04/30 01:06:44;;;;;;;5.20;1.77;;;;;;;7.04;39.01;100738.91;7903767;28;20059;-66
2021/04/30 01:10:35;;;;;;;3.20;2.05;;;;;;;7.04;39.09;100738.91;7875190;28;20551;-66
2021/04/30 01:14:26;;;;;;;4.85;1.90;;;;;;;7.03;39.15;100745.91;7892940;28;20025;-66
2021/04/30 01:18:17;;;;;;;2.85;1.65;;;;;;;6.99;39.00;100748.75;7895763;28;20051;-66
2021/04/30 01:22:08;;;;;;;2.78;1.80;;;;;;;6.97;39.18;100741.00;7895009;28;20829;-66
2021/04/30 01:25:58;;;;;;;6.45;1.88;;;;;;;6.98;38.92;100758.34;7896865;28;20075;-66
2021/04/30 01:29:49;;;;;;;4.07;2.17;;;;;;;6.97;39.35;100767.09;7901585;28;20146;-66
2021/04/30 01:33:40;;;;;;;6.78;2.38;;;;;;;6.96;38.96;100773.28;7862722;28;20028;-66
2021/04/30 01:37:30;;;;;;;4.43;2.00;;;;;;;6.96;39.40;100768.06;7861274;28;20043;-65
2021/04/30 01:41:23;;;;;;;6.65;2.55;;;;;;;6.94;39.28;100769.03;7884765;28;20025;-66
2021/04/30 01:45:14;;;;;;;4.80;2.00;;;;;;;6.96;39.50;100777.66;7921694;28;20033;-66
2021/04/30 01:49:07;;;;;;;8.88;2.20;;;;;;;6.94;39.22;100772.50;7903251;28;20033;-66
2021/04/30 01:52:57;;;;;;;4.82;1.83;;;;;;;6.92;39.49;100773.50;7868462;28;20036;-65
2021/04/30 01:56:48;;;;;;;3.72;2.35;;;;;;;6.90;39.18;100773.59;7917579;28;20038;-66
2021/04/30 02:00:39;;;;;;;5.45;2.13;;;;;;;6.89;39.24;100776.25;7900082;28;20040;-66
2021/04/30 02:04:30;;;;;;;10.18;2.75;;;;;;;6.89;39.72;100782.34;7901930;28;20055;-66
2021/04/30 02:08:21;;;;;;;4.75;2.33;;;;;;;6.87;39.28;100772.91;7933044;28;20204;-66
2021/04/30 02:12:18;;;;;;;10.18;3.28;;;;;;;6.83;39.58;100769.63;7905391;28;20532;-66
2021/04/30 02:16:09;;;;;;;5.90;2.22;;;;;;;6.80;39.85;100777.59;7904586;28;20048;-66
2021/04/30 02:19:59;;;;;;;4.28;2.17;;;;;;;6.78;39.85;100771.63;7900449;28;20405;-66
2021/04/30 02:23:50;;;;;;;5.90;2.70;;;;;;;6.76;39.87;100770.03;7894343;28;20673;-65
2021/04/30 02:27:41;;;;;;;3.15;2.38;;;;;;;6.75;39.64;100761.34;7894972;28;20109;-66
2021/04/30 02:31:32;;;;;;;3.80;2.42;;;;;;;6.75;39.85;100756.13;7873000;28;20036;-66
2021/04/30 02:35:35;;;;;;;6.55;2.88;;;;;;;6.74;39.97;100758.78;7929232;28;20035;-65
2021/04/30 02:39:25;;;;;;;4.78;2.35;;;;;;;6.71;39.62;100753.72;7900795;28;20027;-66
2021/04/30 02:43:18;;;;;;;5.72;2.33;;;;;;;6.72;39.98;100755.44;7884391;28;20041;-66
2021/04/30 02:47:10;;;;;;;5.20;2.63;;;;;;;6.68;40.12;100762.53;7900623;28;20688;-66
2021/04/30 02:51:02;;;;;;;6.25;2.63;;;;;;;6.70;40.04;100771.13;7905209;28;20073;-66
2021/04/30 02:54:53;;;;;;;6.05;3.03;;;;;;;6.70;40.18;100768.53;7889785;28;20437;-65
2021/04/30 02:58:44;;;;;;;6.32;2.60;;;;;;;6.69;40.05;100761.59;7894027;28;20493;-65
2021/04/30 03:02:34;;;;;;;5.18;3.05;;;;;;;6.70;40.45;100762.44;7893349;28;20047;-65
2021/04/30 03:06:25;;;;;;;7.60;3.15;;;;;;;6.69;40.06;100769.44;7893717;28;20071;-66
2021/04/30 03:10:17;;;;;;;6.53;3.13;;;;;;;6.70;40.45;100767.69;7884961;28;20439;-65
2021/04/30 03:14:08;;;;;;;6.80;3.47;;;;;;;6.65;40.18;100767.91;7906154;28;20041;-66
2021/04/30 03:17:59;;;;;;;7.10;3.20;;;;;;;6.69;40.22;100765.97;7898935;28;20468;-66
2021/04/30 03:21:50;;;;;;;7.05;3.58;;;;;;;6.70;40.23;100763.31;7892788;28;20108;-65
2021/04/30 03:25:40;;;;;;;9.50;3.55;;;;;;;6.72;40.71;100763.25;7893064;28;20037;-66
2021/04/30 03:29:31;;;;;;;6.07;3.05;;;;;;;6.69;40.24;100765.97;7897194;28;20032;-66
2021/04/30 03:33:21;;;;;;;5.07;2.78;;;;;;;6.68;40.46;100767.75;7894502;28;20087;-66
2021/04/30 03:37:13;;;;;;;6.13;3.40;;;;;;;6.69;40.39;100772.03;7856463;28;20070;-66
2021/04/30 03:41:04;;;;;;;10.90;4.28;;;;;;;6.71;40.22;100767.59;7890333;28;20039;-66
2021/04/30 03:45:17;;;;;;;6.63;3.53;;;;;;;6.72;40.47;100774.53;8095392;27;20545;-66
2021/04/30 03:49:07;;;;;;;8.15;4.35;;;;;;;6.73;40.69;100794.50;8034153;28;20028;-66
2021/04/30 03:53:05;;;;;;;6.65;3.90;;;;;;;6.70;40.34;100799.84;8033262;28;20036;-67
2021/04/30 03:56:56;;;;;;;6.20;3.95;;;;;;;6.70;40.41;100792.03;8040618;28;20035;-66
2021/04/30 04:00:46;;;;;;;10.68;5.00;;;;;;;6.71;40.44;100796.31;8032624;28;20049;-66
2021/04/30 04:04:37;;;;;;;9.55;3.97;;;;;;;6.72;40.31;100786.75;8033190;28;20032;-66
2021/04/30 04:08:29;;;;;;;8.35;3.60;;;;;;;6.70;40.43;100776.34;8032314;28;20186;-66
2021/04/30 04:12:19;;;;;;;7.95;4.53;;;;;;;6.73;40.64;100777.97;8033497;28;20024;-66
2021/04/30 04:16:10;;;;;;;9.32;3.55;;;;;;;6.72;40.47;100779.75;8032525;28;20101;-66
2021/04/30 04:20:01;;;;;;;6.85;3.95;;;;;;;6.68;40.62;100775.56;8032907;28;20434;-66
2021/04/30 04:23:52;;;;;;;7.22;4.00;;;;;;;6.65;40.77;100767.91;8032449;28;20056;-66
2021/04/30 04:27:42;;;;;;;5.32;3.60;;;;;;;6.67;40.79;100778.28;8032754;28;20047;-66
2021/04/30 04:31:35;;;;;;;14.50;4.35;;;;;;;6.69;41.00;100781.66;8030267;28;20708;-66
2021/04/30 04:35:25;;;;;;;7.10;4.25;;;;;;;6.67;40.81;100784.34;8032900;28;20060;-66
2021/04/30 04:39:16;;;;;;;10.25;4.10;;;;;;;6.69;41.11;100785.09;8032225;28;20634;-66
2021/04/30 04:43:07;;;;;;;7.60;3.92;;;;;;;6.73;41.22;100780.59;8039551;28;20025;-66
2021/04/30 04:46:58;;;;;;;10.23;4.22;;;;;;;6.73;41.42;100778.84;8031515;28;20129;-66
2021/04/30 04:50:49;;;;;;;6.05;3.72;;;;;;;6.77;41.54;100785.59;8036915;28;20389;-66
2021/04/30 04:54:39;;;;;;;9.13;4.40;;;;;;;6.77;41.46;100798.63;8021596;28;20025;-66
2021/04/30 04:58:30;;;;;;;4.97;3.65;;;;;;;6.78;41.26;100796.88;8010750;28;20037;-66
2021/04/30 05:02:21;;;;;;;5.50;3.65;;;;;;;6.81;41.67;100800.16;8012221;28;20041;-65
2021/04/30 05:06:12;;;;;;;7.88;4.00;;;;;;;6.83;41.57;100807.94;8010532;28;20144;-65
2021/04/30 05:10:03;;;;;;;7.43;3.95;;;;;;;6.80;41.50;100813.31;8010679;28;20044;-66
2021/04/30 05:13:54;;;;;;;6.80;3.90;;;;;;;6.85;41.15;100819.13;8011881;28;20032;-66
2021/04/30 05:17:44;;;;;;;6.50;3.70;;;;;;;6.85;41.60;100824.34;8009297;28;20053;-66
2021/04/30 05:21:36;;;;;;;9.30;3.95;;;;;;;6.88;41.51;100824.22;8013453;28;20111;-66
2021/04/30 05:25:27;;;;;;;8.73;4.28;;;;;;;6.89;41.49;100828.50;8013601;28;20033;-65
2021/04/30 05:29:18;;;;;;;8.48;3.63;;;;;;;6.89;41.37;100823.28;8010123;28;20037;-66
2021/04/30 05:33:09;;;;;;;7.60;3.63;;;;;;;6.88;41.30;100830.28;8002852;28;20504;-66
2021/04/30 05:37:00;;;;;;;6.50;4.43;;;;;;;6.88;41.65;100829.44;8007855;28;20029;-66
2021/04/30 05:40:50;;;;;;;6.07;3.25;;;;;;;6.81;41.66;100822.81;8003770;28;20115;-66
2021/04/30 05:44:41;;;;;;;6.95;4.22;;;;;;;6.83;41.63;100831.44;8009396;28;20047;-66
2021/04/30 05:48:32;;;;;;;7.72;4.10;;;;;;;6.85;41.43;100834.78;8007518;28;20125;-66
2021/04/30 05:52:23;;;;;;;12.07;5.03;;;;;;;6.84;41.67;100840.97;8007983;28;20104;-66
2021/04/30 05:56:13;;;;;;;6.35;3.92;;;;;;;6.83;41.73;100844.50;7991007;28;20041;-66
2021/04/30 06:00:06;;;;;;;8.63;4.35;;;;;;;6.84;41.91;100840.97;8008897;28;20786;-66
2021/04/30 06:04:05;;;;;;;10.48;4.38;;;;;;;6.84;41.76;100841.78;8000738;28;20471;-65
2021/04/30 06:07:55;;;;;;;7.22;4.38;;;;;;;6.84;42.00;100849.63;8007675;28;20045;-66
2021/04/30 06:11:46;;;;;;;7.22;4.35;;;;;;;6.87;42.07;100853.84;8015404;28;20667;-66
2021/04/30 06:15:36;;;;;;;11.82;4.13;;;;;;;6.84;42.16;100854.03;8006538;28;20037;-66
2021/04/30 06:19:27;;;;;;;11.65;4.40;;;;;;;6.85;41.96;100850.47;8008647;28;20179;-66
2021/04/30 06:23:18;;;;;;;7.13;4.05;;;;;;;6.83;41.74;100841.88;8007258;28;20025;-66
2021/04/30 06:27:08;;;;;;;6.47;4.22;;;;;;;6.87;42.15;100836.41;8008155;28;20128;-66
2021/04/30 06:30:59;;;;;;;7.32;4.60;;;;;;;6.92;41.96;100847.47;8007432;28;20082;-65
2021/04/30 06:34:50;;;;;;;8.15;4.60;;;;;;;6.93;41.86;100850.91;8008407;28;20111;-66
2021/04/30 06:38:40;;;;;;;13.45;5.03;;;;;;;6.92;42.17;100851.84;8007690;28;20802;-65
2021/04/30 06:42:31;;;;;;;9.82;5.15;;;;;;;6.94;42.03;100850.00;8006452;28;20037;-66
2021/04/30 06:46:23;;;;;;;12.98;4.82;;;;;;;6.97;42.36;100857.66;8014807;28;20133;-66
2021/04/30 06:50:14;;;;;;;12.57;4.30;;;;;;;6.96;42.24;100858.63;8013946;28;20044;-66
2021/04/30 06:54:05;;;;;;;8.30;4.35;;;;;;;6.95;42.38;100859.53;8012535;28;20051;-65
2021/04/30 06:57:55;;;;;;;17.13;4.72;;;;;;;6.93;42.10;100856.13;8007236;28;20131;-65
2021/04/30 07:01:46;;;;;;;10.65;5.25;;;;;;;6.95;42.21;100867.38;8005532;28;20051;-65
2021/04/30 07:05:36;;;;;;;8.35;4.45;;;;;;;6.93;42.46;100862.22;8007514;28;20029;-66
2021/04/30 07:09:27;;;;;;;7.80;4.75;;;;;;;7.00;42.49;100875.81;8006897;28;20029;-65
2021/04/30 07:13:18;;;;;;;9.95;4.78;;;;;;;7.03;42.39;100868.66;8006693;28;20040;-65
2021/04/30 07:17:08;;;;;;;9.60;5.72;;;;;;;7.07;42.19;100869.34;8005628;28;20048;-66
2021/04/30 07:20:59;;;;;;;8.48;4.70;;;;;;;7.12;42.33;100874.34;8004941;28;20033;-65
2021/04/30 07:24:50;;;;;;;12.13;4.72;;;;;;;7.15;42.69;100875.03;8010446;28;20028;-65
2021/04/30 07:28:42;;;;;;;9.88;4.55;;;;;;;7.21;42.50;100874.72;8007282;28;20043;-66
2021/04/30 07:32:33;;;;;;;7.60;5.45;;;;;;;7.30;42.36;100876.00;8004870;28;20029;-66
2021/04/30 07:36:23;;;;;;;9.27;4.90;;;;;;;7.37;42.53;100878.22;8002969;28;20124;-66
2021/04/30 07:40:14;;;;;;;7.90;5.18;;;;;;;7.41;42.60;100882.34;8007010;28;20123;-66
2021/04/30 07:44:05;;;;;;;6.88;4.90;;;;;;;7.49;42.63;100874.94;8002233;28;20389;-66
2021/04/30 07:47:55;;;;;;;7.75;5.03;;;;;;;7.57;42.79;100890.22;7998821;28;20048;-66
2021/04/30 07:51:46;;;;;;;9.43;4.70;;;;;;;7.60;43.01;100876.97;8017024;28;20047;-64
2021/04/30 07:55:37;;;;;;;9.98;4.95;;;;;;;7.67;43.00;100882.75;8012046;28;20625;-66
2021/04/30 07:59:28;;;;;;;9.18;5.35;;;;;;;7.74;42.99;100895.41;8008958;28;20028;-65
2021/04/30 08:03:20;;;;;;;8.60;5.55;;;;;;;7.78;43.25;100889.06;8011816;28;20063;-65
2021/04/30 08:07:11;;;;;;;7.65;4.03;;;;;;;7.83;43.28;100886.22;8014884;28;20047;-65
2021/04/30 08:11:01;;;;;;;9.65;4.65;;;;;;;7.87;43.13;100885.13;8008870;28;20044;-65
2021/04/30 08:14:52;;;;;;;6.18;4.38;;;;;;;7.93;42.76;100890.84;8016626;28;20029;-66
2021/04/30 08:18:43;;;;;;;8.35;4.55;;;;;;;7.96;43.14;100885.44;8012541;28;20048;-66
2021/04/30 08:22:34;;;;;;;7.93;4.20;;;;;;;8.05;42.82;100888.47;8014398;28;20039;-65
2021/04/30 08:26:25;;;;;;;11.63;5.15;;;;;;;8.11;42.93;100888.19;8014450;28;20048;-65
2021/04/30 08:30:16;;;;;;;11.07;4.68;;;;;;;8.17;42.92;100893.91;8017970;28;20044;-65
2021/04/30 08:34:07;;;;;;;10.75;4.70;;;;;;;8.26;43.12;100897.78;8022234;28;20044;-65
2021/04/30 08:37:58;;;;;;;12.05;5.47;;;;;;;8.28;42.85;100890.72;7992211;28;20044;-65
2021/04/30 08:41:49;;;;;;;12.82;5.50;;;;;;;8.29;43.24;100890.59;8019618;28;20037;-67
2021/04/30 08:45:40;;;;;;;10.10;5.38;;;;;;;8.35;42.90;100905.13;8024556;28;20163;-65
2021/04/30 08:49:31;;;;;;;7.72;5.70;;;;;;;8.35;43.06;100902.50;8015805;28;20033;-65
2021/04/30 08:53:21;;;;;;;10.27;5.50;;;;;;;8.38;43.24;100903.19;8018697;28;20056;-65
2021/04/30 08:57:12;;;;;;;8.40;4.82;;;;;;;8.42;43.15;100913.50;8021068;28;20032;-65
2021/04/30 09:01:04;;;;;;;10.05;5.40;;;;;;;8.42;43.35;100913.50;8020153;28;20074;-67
2021/04/30 09:04:56;;;;;;;8.68;5.40;;;;;;;8.42;42.91;100914.31;8022206;28;20072;-67
2021/04/30 09:08:49;;;;;;;11.60;5.28;;;;;;;8.45;43.65;100919.41;8018889;28;20148;-66
2021/04/30 09:12:41;;;;;;;7.60;4.80;;;;;;;8.49;43.44;100920.91;8021411;28;20021;-67
2021/04/30 09:17:06;;;;;;;9.32;4.65;;;;;;;8.52;43.05;100915.50;8016571;28;20037;-66
2021/04/30 09:21:07;;;;;;;10.45;5.60;;;;;;;8.57;43.38;100921.31;8018648;28;20072;-66
2021/04/30 09:24:59;;;;;;;10.13;5.30;;;;;;;8.61;43.48;100920.22;8015398;28;20028;-65
2021/04/30 09:29:04;;;;;;;12.15;4.75;;;;;;;8.65;43.09;100924.34;8023079;28;20063;-66
2021/04/30 09:33:12;;;;;;;7.38;4.97;;;;;;;8.70;43.31;100929.34;8020686;28;20036;-66
2021/04/30 09:37:10;;;;;;;10.35;5.03;;;;;;;8.74;43.47;100931.69;8017566;28;20119;-66
2021/04/30 09:41:01;;;;;;;7.63;4.82;;;;;;;8.79;43.28;100927.00;8014426;28;20033;-66
2021/04/30 09:44:54;;;;;;;11.20;5.70;;;;;;;8.88;43.42;100930.88;8019612;28;20086;-65
2021/04/30 09:49:04;;;;;;;9.93;4.85;;;;;;;8.97;43.29;100926.88;8013988;28;20048;-66
2021/04/30 09:53:00;;;;;;;12.10;5.65;;;;;;;9.11;43.53;100924.31;8018563;28;20552;-66
2021/04/30 09:57:03;;;;;;;7.47;5.53;;;;;;;9.26;43.44;100931.25;8019405;28;20051;-65
2021/04/30 10:00:57;;;;;;;10.75;5.55;;;;;;;9.41;43.43;100935.59;8020004;28;20157;-65
2021/04/30 10:04:49;;;;;;;11.27;5.53;;;;;;;9.55;43.35;100930.38;8017774;28;20044;-66
2021/04/30 10:08:41;;;;;;;15.45;6.00;;;;;;;9.70;43.45;100928.63;8018863;28;20082;-66
2021/04/30 10:12:33;;;;;;;16.38;6.35;;;;;;;9.87;43.20;100927.53;8016863;28;20036;-65
2021/04/30 10:16:23;;;;;;;19.85;6.40;;;;;;;10.07;43.22;100917.47;8018125;28;20047;-65
2021/04/30 10:20:15;;;;;;;14.20;6.55;;;;;;;10.27;43.13;100918.88;8016178;28;20024;-65
2021/04/30 10:24:12;;;;;;;16.67;6.00;;;;;;;10.43;43.05;100909.06;8017919;28;20024;-65
2021/04/30 10:28:05;;;;;;;10.05;5.55;;;;;;;10.58;42.97;100915.97;8014129;28;20064;-66
2021/04/30 10:31:59;;;;;;;11.30;5.10;;;;;;;10.73;43.03;100906.25;8017420;28;20718;-65
2021/04/30 10:36:07;;;;;;;12.75;5.78;;;;;;;10.82;42.80;100916.13;8019216;28;20078;-66
2021/04/30 10:40:03;;;;;;;8.07;5.23;;;;;;;10.87;42.60;100911.41;8016408;28;20671;-66
2021/04/30 10:44:23;;;;;;;15.45;6.15;;;;;;;10.90;42.40;100908.56;8017343;28;20041;-65
2021/04/30 10:48:14;;;;;;;10.98;6.20;;;;;;;10.94;42.61;100903.97;8013826;28;20052;-65
2021/04/30 10:52:05;;;;;;;8.18;5.10;;;;;;;11.00;42.49;100896.50;8015646;28;20036;-65
2021/04/30 10:55:55;;;;;;;15.43;6.70;;;;;;;11.13;42.22;100904.41;8012640;28;20140;-67
2021/04/30 10:59:50;;;;;;;10.98;6.43;;;;;;;11.26;42.27;100892.13;8011309;28;20751;-66
2021/04/30 11:03:41;;;;;;;12.68;6.60;;;;;;;11.37;42.26;100881.69;8014465;28;20443;-67
2021/04/30 11:07:45;;;;;;;9.98;5.68;;;;;;;11.52;42.21;100883.25;8009384;28;21289;-65
2021/04/30 11:11:38;;;;;;;13.27;5.80;;;;;;;11.72;42.07;100883.69;8015753;28;20043;-66
2021/04/30 11:15:51;;;;;;;11.20;6.57;;;;;;;11.91;42.00;100870.91;8015876;28;20119;-66
2021/04/30 11:19:47;;;;;;;15.52;7.18;;;;;;;12.07;41.94;100859.16;8005860;28;20036;-68
2021/04/30 11:23:46;;;;;;;18.67;7.15;;;;;;;12.19;41.80;100857.41;8004540;28;20040;-72
2021/04/30 11:27:36;;;;;;;11.43;6.05;;;;;;;12.32;41.90;100850.31;8011823;28;20112;-68
2021/04/30 11:31:29;;;;;;;8.52;5.22;;;;;;;12.43;41.83;100850.34;8017573;28;20125;-66
2021/04/30 11:35:21;;;;;;;10.15;6.05;;;;;;;12.51;41.90;100855.06;8014565;28;20054;-66
2021/04/30 11:39:22;;;;;;;8.95;6.00;;;;;;;12.51;41.64;100865.59;8016410;28;20032;-66
2021/04/30 11:43:12;;;;;;;10.55;6.03;;;;;;;12.45;41.52;100868.69;8015473;28;20449;-66
2021/04/30 11:47:08;;;;;;;10.07;5.53;;;;;;;12.35;41.14;100867.69;8012162;28;20126;-65
2021/04/30 11:51:06;;;;;;;16.35;5.90;;;;;;;12.26;40.89;100871.00;8016126;28;20064;-66
2021/04/30 11:55:02;;;;;;;12.07;5.85;;;;;;;12.15;40.72;100868.28;8019249;28;20047;-66
2021/04/30 11:58:53;;;;;;;11.55;5.95;;;;;;;12.04;40.43;100871.69;8017007;28;20127;-66
2021/04/30 12:02:43;;;;;;;13.43;5.72;;;;;;;11.96;40.72;100874.88;8016756;28;20042;-67
2021/04/30 12:06:45;;;;;;;7.38;4.82;;;;;;;11.87;40.68;100872.06;8010724;28;20045;-66
2021/04/30 12:10:36;;;;;;;9.82;5.20;;;;;;;11.79;40.50;100867.34;8022672;28;20024;-66
2021/04/30 12:14:27;;;;;;;13.77;5.93;;;;;;;11.65;40.57;100859.59;8023307;28;20063;-65
2021/04/30 12:18:18;;;;;;;8.63;5.43;;;;;;;11.66;40.45;100860.44;8017583;28;20041;-65
2021/04/30 12:22:17;;;;;;;10.10;5.72;;;;;;;11.64;40.62;100871.06;8023676;28;20439;-66
2021/04/30 12:26:08;;;;;;;7.82;6.32;;;;;;;11.62;40.43;100875.59;8023421;28;21301;-65
2021/04/30 12:29:59;;;;;;;9.50;6.10;;;;;;;11.58;40.46;100879.38;8015711;28;20531;-66
2021/04/30 12:33:51;;;;;;;9.85;6.20;;;;;;;11.54;40.51;100881.38;8019016;28;20033;-65
2021/04/30 12:37:42;;;;;;;10.85;6.35;;;;;;;11.54;40.64;100886.63;8016187;28;20066;-65
2021/04/30 12:41:34;;;;;;;16.42;7.05;;;;;;;11.56;40.64;100886.53;8019262;28;20587;-66
2021/04/30 12:45:25;;;;;;;8.80;6.18;;;;;;;11.58;40.44;100884.66;8019988;28;20040;-65
2021/04/30 12:49:18;;;;;;;12.80;6.25;;;;;;;11.63;40.49;100877.28;8017453;28;21235;-65
2021/04/30 12:53:08;;;;;;;15.65;6.38;;;;;;;11.68;40.50;100864.66;8020633;28;20134;-66
2021/04/30 12:57:01;;;;;;;10.90;6.90;;;;;;;11.84;40.56;100862.59;8021328;28;20655;-66
2021/04/30 13:00:55;;;;;;;11.98;6.45;;;;;;;11.96;40.58;100861.72;8018924;28;20064;-66
2021/04/30 13:04:49;;;;;;;9.60;6.25;;;;;;;12.12;40.36;100852.72;8020311;28;20037;-65
2021/04/30 13:08:42;;;;;;;9.80;6.22;;;;;;;12.23;40.15;100856.22;8016540;28;20445;-66
2021/04/30 13:12:36;;;;;;;9.48;6.57;;;;;;;12.35;40.32;100844.78;8023067;28;20032;-66
2021/04/30 13:16:56;;;;;;;11.73;6.00;;;;;;;12.43;40.15;100837.16;7998976;28;20048;-66
2021/04/30 13:20:49;;;;;;;10.98;6.75;;;;;;;12.59;40.15;100846.63;8013059;28;20048;-65
2021/04/30 13:24:40;;;;;;;11.75;7.00;;;;;;;12.66;39.92;100834.66;8018663;28;20021;-65
2021/04/30 13:28:31;;;;;;;11.90;7.65;;;;;;;12.74;39.98;100830.47;8018405;28;20508;-66
2021/04/30 13:32:26;;;;;;;17.30;7.15;;;;;;;12.86;39.86;100824.28;8018560;28;20755;-65
2021/04/30 13:36:17;;;;;;;12.60;6.78;;;;;;;12.97;39.59;100823.47;8021812;28;20036;-66
2021/04/30 13:40:13;;;;;;;14.50;7.60;;;;;;;13.06;39.57;100824.53;8021992;28;20419;-65
2021/04/30 13:44:20;;;;;;;14.00;6.30;;;;;;;13.10;39.42;100815.44;8019162;28;20029;-65
2021/04/30 13:48:11;;;;;;;15.35;7.38;;;;;;;13.13;39.28;100816.06;8015014;28;20094;-66
2021/04/30 13:52:01;;;;;;;17.23;7.18;;;;;;;13.10;39.51;100812.78;8016867;28;20028;-65
2021/04/30 13:55:52;;;;;;;11.88;6.80;;;;;;;13.10;39.35;100825.97;8015709;28;20480;-65
2021/04/30 13:59:43;;;;;;;9.55;6.07;;;;;;;13.06;39.52;100832.44;8011202;28;20032;-65
2021/04/30 14:03:33;;;;;;;11.80;6.80;;;;;;;13.02;39.36;100831.84;8020845;28;20626;-64
2021/04/30 14:07:24;;;;;;;12.07;6.75;;;;;;;12.97;39.34;100826.91;8018916;28;20032;-66
2021/04/30 14:11:15;;;;;;;18.60;6.68;;;;;;;12.94;38.97;100819.25;8017651;28;20127;-64
2021/04/30 14:15:07;;;;;;;11.35;7.25;;;;;;;12.89;39.13;100817.91;8018890;28;20044;-64
2021/04/30 14:18:58;;;;;;;9.80;6.90;;;;;;;12.83;39.09;100816.59;7995590;28;20619;-65
2021/04/30 14:22:49;;;;;;;13.13;7.07;;;;;;;12.82;38.98;100817.56;7997785;28;20036;-65
2021/04/30 14:26:40;;;;;;;9.95;7.13;;;;;;;12.82;39.00;100812.28;7997031;28;20052;-65
2021/04/30 14:30:31;;;;;;;13.15;7.35;;;;;;;12.80;38.98;100816.84;7998688;28;20048;-65
2021/04/30 14:34:22;;;;;;;13.10;7.63;;;;;;;12.86;38.92;100805.81;7996546;28;20631;-64
2021/04/30 14:38:17;;;;;;;11.07;7.07;;;;;;;12.85;38.83;100801.50;7997657;28;20033;-64
2021/04/30 14:42:09;;;;;;;12.50;7.47;;;;;;;12.90;38.54;100799.34;7993592;28;20813;-64
2021/04/30 14:46:00;;;;;;;12.13;7.13;;;;;;;12.88;38.49;100798.66;7994290;28;20049;-65
2021/04/30 14:49:51;;;;;;;14.48;7.80;;;;;;;12.93;38.41;100803.56;7994426;28;20608;-64
2021/04/30 14:53:42;;;;;;;11.05;7.63;;;;;;;12.94;38.34;100799.94;7996188;28;20858;-65
2021/04/30 14:57:33;;;;;;;12.80;6.85;;;;;;;12.92;38.33;100797.44;7995318;28;20033;-66
2021/04/30 15:01:23;;;;;;;11.00;6.80;;;;;;;12.97;38.28;100803.19;7995044;28;20045;-64
2021/04/30 15:05:15;;;;;;;9.98;6.38;;;;;;;12.96;38.40;100791.00;7994468;28;20041;-65
2021/04/30 15:09:06;;;;;;;13.18;7.63;;;;;;;13.03;38.41;100798.41;7997590;28;20049;-65
2021/04/30 15:12:57;;;;;;;11.55;7.55;;;;;;;13.04;38.20;100803.56;7994042;28;20114;-66
2021/04/30 15:16:48;;;;;;;12.18;7.30;;;;;;;13.05;38.21;100801.78;7994983;28;20170;-65
2021/04/30 15:20:40;;;;;;;14.50;7.50;;;;;;;13.05;38.11;100799.16;7996837;28;20039;-65
2021/04/30 15:24:31;;;;;;;10.77;7.13;;;;;;;13.01;38.26;100792.44;7995161;28;20037;-65
2021/04/30 15:28:21;;;;;;;8.85;6.57;;;;;;;12.97;38.38;100787.38;7993157;28;20043;-66
2021/04/30 15:32:12;;;;;;;11.98;8.02;;;;;;;12.93;38.04;100787.75;7995173;28;20049;-67
2021/04/30 15:36:03;;;;;;;10.77;7.57;;;;;;;12.85;38.13;100785.69;7998327;28;20040;-68
2021/04/30 15:39:54;;;;;;;12.30;8.10;;;;;;;12.76;37.97;100777.66;7998181;28;20032;-68
2021/04/30 15:43:44;;;;;;;11.65;6.88;;;;;;;12.66;38.08;100780.16;7992657;28;20029;-67
2021/04/30 15:47:35;;;;;;;12.35;8.02;;;;;;;12.61;38.03;100777.00;7991364;28;20122;-68
2021/04/30 15:51:25;;;;;;;13.73;7.82;;;;;;;12.52;37.92;100788.22;7995630;28;20032;-67
2021/04/30 15:55:18;;;;;;;12.30;6.63;;;;;;;12.44;37.86;100794.06;7994540;28;20098;-67
2021/04/30 15:59:08;;;;;;;105.45;13.88;;;;;;;12.38;38.12;100785.78;7995274;28;20068;-68
2021/04/30 16:02:59;;;;;;;10.02;6.78;;;;;;;12.31;38.10;100781.94;7994168;28;20033;-67
2021/04/30 16:06:50;;;;;;;11.70;7.05;;;;;;;12.29;38.04;100781.22;7994306;28;20082;-66
2021/04/30 16:10:40;;;;;;;14.57;7.35;;;;;;;12.23;38.15;100776.38;7993703;28;20677;-67
2021/04/30 16:14:32;;;;;;;11.90;7.45;;;;;;;12.17;37.82;100769.78;7992350;28;20041;-66
2021/04/30 16:18:23;;;;;;;11.02;7.18;;;;;;;12.13;37.65;100770.97;7991897;28;20051;-67
2021/04/30 16:22:14;;;;;;;10.30;7.18;;;;;;;12.13;37.89;100764.88;7991106;28;20099;-67
2021/04/30 16:26:05;;;;;;;12.68;8.30;;;;;;;12.13;37.81;100770.13;7991773;28;20048;-67
2021/04/30 16:29:56;;;;;;;14.00;7.47;;;;;;;12.07;37.86;100767.00;7994101;28;20033;-66
2021/04/30 16:33:47;;;;;;;11.43;7.15;;;;;;;12.04;37.98;100769.88;7993927;28;20098;-67
2021/04/30 16:37:37;;;;;;;17.65;8.15;;;;;;;12.04;37.70;100772.50;7993608;28;20041;-67
2021/04/30 16:41:28;;;;;;;13.32;7.68;;;;;;;11.98;38.02;100774.72;7991358;28;20029;-67
2021/04/30 16:45:19;;;;;;;13.10;8.48;;;;;;;11.98;37.74;100778.19;7991240;28;20025;-67
2021/04/30 16:49:10;;;;;;;11.68;8.05;;;;;;;11.95;37.95;100773.16;7990546;28;20036;-67
2021/04/30 16:53:00;;;;;;;12.63;8.13;;;;;;;11.88;37.53;100764.03;7996053;28;20032;-65
2021/04/30 16:56:51;;;;;;;12.50;7.97;;;;;;;11.88;37.73;100766.69;7997588;28;20029;-65
2021/04/30 17:00:42;;;;;;;11.07;7.30;;;;;;;11.85;37.56;100766.91;7999246;28;20556;-66
2021/04/30 17:04:36;;;;;;;14.38;8.30;;;;;;;11.81;37.90;100768.06;7996154;28;20548;-65
2021/04/30 17:08:27;;;;;;;14.13;8.50;;;;;;;11.74;37.59;100766.81;7997456;28;20036;-65
2021/04/30 17:12:17;;;;;;;52.20;14.57;;;;;;;11.74;37.89;100771.25;7996192;28;20025;-65
2021/04/30 17:16:08;;;;;;;20.23;8.85;;;;;;;11.67;37.83;100757.72;7997915;28;20040;-66
2021/04/30 17:19:59;;;;;;;12.73;7.45;;;;;;;11.67;37.82;100762.13;7998252;28;20025;-65
2021/04/30 17:23:50;;;;;;;11.48;7.82;;;;;;;11.64;37.71;100768.47;7998982;28;20029;-65
2021/04/30 17:27:40;;;;;;;16.88;8.15;;;;;;;11.59;37.85;100771.41;7997836;28;20475;-65
2021/04/30 17:31:31;;;;;;;12.55;7.15;;;;;;;11.56;37.85;100768.13;8000841;28;20068;-65
2021/04/30 17:35:22;;;;;;;11.85;7.20;;;;;;;11.51;37.97;100762.38;7995363;28;20021;-66
2021/04/30 17:39:12;;;;;;;9.25;6.30;;;;;;;11.49;37.66;100770.34;8001058;28;20041;-65
2021/04/30 17:43:03;;;;;;;9.13;6.80;;;;;;;11.44;38.19;100771.66;7996618;28;20741;-65
2021/04/30 17:46:54;;;;;;;10.45;7.10;;;;;;;11.43;37.91;100777.84;7999645;28;20529;-72
2021/04/30 17:50:44;;;;;;;12.10;7.18;;;;;;;11.40;38.06;100778.88;7985023;28;20055;-73
2021/04/30 17:54:36;;;;;;;10.77;7.65;;;;;;;11.34;38.34;100784.59;8003676;28;20039;-71
2021/04/30 17:58:27;;;;;;;9.77;6.40;;;;;;;11.30;38.41;100780.50;8000212;28;20039;-72
2021/04/30 18:02:18;;;;;;;13.05;7.60;;;;;;;11.20;38.63;100775.97;8001934;28;20115;-72